Aviation Digital Data Service (ADDS)

Output produced by METARs form (0339 UTC 19 August 2019)
found at http://www.aviationweather.gov/metar/data/
 
Forecast for: DTTJ (DJERBA MELLITA , TN)
Text: TAF DTTJ 182300Z 1900/1924 11015KT CAVOK
Forecast period: 0000 UTC 19 August 2019 to 0000 UTC 20 August 2019
Forecast type: FROM: standard forecast or significant change
Winds: from the ESE (110 degrees) at 17 MPH (15 knots; 7.7 m/s)
Visibility: 6 or more miles 10+ km)
Ceiling: unknown
Clouds: missing
Weather: NSW  (no significant weather)